createdAt,value
2023-01-02T00:01:23.471Z,1.30
2023-01-02T00:11:29.284Z,1.00
2023-01-02T00:21:32.810Z,1.10
2023-01-02T00:31:39.290Z,0.80
2023-01-02T00:41:42.813Z,0.40
2023-01-02T00:51:47.755Z,0.20
2023-01-02T01:01:51.580Z,0.20
2023-01-02T01:11:56.886Z,0.20
2023-01-02T01:22:00.510Z,-0.20
2023-01-02T01:32:06.484Z,0.00
2023-01-02T01:42:14.041Z,-0.10
2023-01-02T01:52:24.279Z,-0.30
2023-01-02T02:02:30.220Z,-0.10
2023-01-02T02:12:36.116Z,-0.40
2023-01-02T02:23:37.936Z,0.10
2023-01-02T02:33:49.969Z,-0.30
2023-01-02T02:44:11.119Z,0.10
2023-01-02T02:54:20.763Z,0.20
2023-01-02T03:04:25.037Z,0.10
2023-01-02T03:14:37.329Z,0.40
2023-01-02T03:24:42.875Z,0.70
2023-01-02T03:34:50.127Z,0.50
2023-01-02T03:45:00.539Z,0.60
2023-01-02T03:55:06.972Z,0.20
2023-01-02T04:05:19.871Z,-0.20
2023-01-02T04:15:28.645Z,-0.20
2023-01-02T04:25:36.321Z,-0.60
2023-01-02T04:35:41.212Z,-0.60
2023-01-02T04:45:44.630Z,-0.80
2023-01-02T04:55:49.699Z,-0.90
2023-01-02T05:06:00.671Z,-1.10
2023-01-02T05:16:06.504Z,-0.80
2023-01-02T05:26:12.547Z,-1.10
2023-01-02T05:36:17.346Z,-1.10
2023-01-02T05:46:22.235Z,-1.30
2023-01-02T05:56:29.615Z,-1.50
2023-01-02T06:06:36.637Z,-1.10
2023-01-02T06:16:41.874Z,-1.20
2023-01-02T06:26:45.446Z,-1.40
2023-01-02T06:36:50.254Z,-1.30
2023-01-02T06:46:53.664Z,-1.50
2023-01-02T06:56:58.498Z,-1.30
2023-01-02T07:07:02.453Z,-1.20
2023-01-02T07:17:07.268Z,-0.70
2023-01-02T07:27:10.750Z,-0.40
2023-01-02T07:37:15.595Z,0.20
2023-01-02T07:47:19.031Z,0.70
2023-01-02T07:57:23.851Z,1.60
2023-01-02T08:07:28.192Z,2.40
2023-01-02T08:17:34.242Z,4.10
2023-01-02T08:27:37.841Z,7.30
2023-01-02T08:37:48.383Z,9.10
2023-01-02T08:47:55.031Z,9.20
2023-01-02T08:57:59.860Z,11.60
2023-01-02T09:08:04.210Z,13.40
2023-01-02T09:18:09.099Z,12.10
2023-01-02T09:28:12.558Z,10.50
2023-01-02T09:38:17.480Z,9.90
2023-01-02T09:48:22.308Z,11.40
2023-01-02T09:58:37.272Z,13.00
2023-01-02T10:08:55.874Z,20.60
2023-01-02T10:19:04.864Z,26.70
2023-01-02T10:29:18.794Z,29.10
2023-01-02T10:39:26.539Z,30.60
2023-01-02T10:49:30.556Z,32.80
2023-01-02T10:59:35.508Z,34.60
2023-01-02T11:09:39.044Z,36.10
2023-01-02T11:19:46.872Z,32.70
2023-01-02T11:29:51.755Z,29.90
2023-01-02T11:40:06.494Z,29.70
2023-01-02T11:50:14.170Z,33.40
2023-01-02T12:00:22.060Z,34.70
2023-01-02T12:10:44.095Z,34.20
2023-01-02T12:20:59.260Z,29.40
2023-01-02T12:31:25.458Z,30.10
2023-01-02T12:42:01.262Z,29.30
2023-01-02T12:52:09.006Z,29.20
2023-01-02T13:02:26.373Z,28.40
2023-01-02T13:12:33.514Z,29.50
2023-01-02T13:22:53.385Z,29.70
2023-01-02T13:32:59.297Z,28.90
2023-01-02T13:43:09.003Z,28.20
2023-01-02T13:53:33.817Z,26.80
2023-01-02T14:03:39.664Z,24.20
2023-01-02T14:13:46.887Z,20.50
2023-01-02T14:24:16.034Z,15.70
2023-01-02T14:34:24.479Z,13.00
2023-01-02T14:44:29.473Z,10.90
2023-01-02T14:54:44.697Z,9.70
2023-01-02T15:04:54.117Z,8.50
2023-01-02T15:14:58.111Z,7.60
2023-01-02T15:25:03.095Z,6.80
2023-01-02T15:35:21.581Z,6.20
2023-01-02T15:45:28.379Z,5.50
2023-01-02T15:55:36.757Z,5.20
2023-01-02T16:05:51.199Z,4.80
2023-01-02T16:16:15.440Z,4.10
2023-01-02T16:26:27.631Z,3.90
2023-01-02T16:36:31.547Z,3.50
2023-01-02T16:46:36.615Z,3.30
2023-01-02T16:56:40.086Z,3.30
2023-01-02T17:06:45.021Z,2.80
2023-01-02T17:16:48.501Z,2.50
2023-01-02T17:26:53.506Z,2.70
2023-01-02T17:36:58.165Z,2.50
2023-01-02T17:47:38.918Z,2.00
2023-01-02T17:57:27.072Z,2.00
2023-01-02T18:07:32.045Z,2.00
2023-01-02T18:17:35.549Z,1.90
2023-01-02T18:27:40.406Z,1.30
2023-01-02T18:37:44.253Z,1.20
2023-01-02T18:47:55.411Z,1.20
2023-01-02T18:58:02.937Z,1.10
2023-01-02T19:08:20.093Z,0.90
2023-01-02T19:18:35.434Z,0.90
2023-01-02T19:28:49.718Z,1.10
2023-01-02T19:38:53.862Z,1.10
2023-01-02T19:48:58.851Z,1.30
2023-01-02T19:59:02.287Z,1.00
2023-01-02T20:09:07.211Z,1.50
2023-01-02T20:19:11.380Z,1.50
2023-01-02T20:29:16.932Z,1.80
2023-01-02T20:39:21.188Z,1.60
2023-01-02T20:49:26.360Z,2.50
2023-01-02T20:59:29.835Z,2.60
2023-01-02T21:09:34.876Z,2.10
2023-01-02T21:19:38.368Z,2.00
2023-01-02T21:29:45.701Z,1.80
2023-01-02T21:39:49.861Z,1.50
2023-01-02T21:49:54.819Z,1.30
2023-01-02T21:59:58.524Z,1.30
2023-01-02T22:10:03.932Z,1.30
2023-01-02T22:20:09.165Z,1.30
2023-01-02T22:30:22.037Z,1.50
2023-01-02T22:40:29.415Z,1.80
2023-01-02T22:51:03.921Z,1.60
2023-01-02T23:01:19.808Z,1.60
2023-01-02T23:11:26.201Z,1.50
2023-01-02T23:21:32.637Z,1.60
2023-01-02T23:31:39.186Z,1.70
2023-01-02T23:41:45.204Z,1.60
2023-01-02T23:51:50.534Z,1.70
